createdAt,value
2022-11-16T00:02:28.482Z,98032.28
2022-11-16T00:05:16.130Z,98032.28
2022-11-16T00:08:03.472Z,98031.28
2022-11-16T00:10:51.874Z,98020.25
2022-11-16T00:13:40.380Z,98026.16
2022-11-16T00:16:27.646Z,98022.94
2022-11-16T00:19:14.793Z,98023.72
2022-11-16T00:22:02.286Z,98026.44
2022-11-16T00:24:49.600Z,98028.06
2022-11-16T00:27:38.077Z,98021.31
2022-11-16T00:30:25.316Z,98025.66
2022-11-16T00:33:16.591Z,98019.69
2022-11-16T00:36:05.180Z,98021.31
2022-11-16T00:38:54.538Z,98019.69
2022-11-16T00:41:41.782Z,98013.78
2022-11-16T00:44:30.696Z,98019.69
2022-11-16T00:47:18.083Z,98020.66
2022-11-16T00:50:07.007Z,98017.28
2022-11-16T00:52:55.061Z,98017.28
2022-11-16T00:55:44.593Z,98016.47
2022-11-16T00:58:33.480Z,98021.75
2022-11-16T01:01:27.533Z,98018.38
2022-11-16T01:04:14.953Z,98017.56
2022-11-16T01:07:03.043Z,98017.72
2022-11-16T01:09:50.465Z,98015.16
2022-11-16T01:12:36.611Z,98010.03
2022-11-16T01:15:26.712Z,98007.47
2022-11-16T01:18:15.346Z,98002.50
2022-11-16T01:21:02.344Z,98005.06
2022-11-16T01:23:49.953Z,98001.69
2022-11-16T01:26:37.378Z,97994.94
2022-11-16T01:29:25.845Z,97993.34
2022-11-16T01:32:17.117Z,97988.22
2022-11-16T01:35:06.839Z,97986.59
2022-11-16T01:37:55.294Z,97985.00
2022-11-16T01:40:43.501Z,97979.88
2022-11-16T01:43:30.659Z,97985.81
2022-11-16T01:46:24.229Z,97974.75
2022-11-16T01:49:15.897Z,97974.75
2022-11-16T01:52:10.007Z,97956.81
2022-11-16T01:54:58.433Z,97966.25
2022-11-16T01:57:50.135Z,97966.25
2022-11-16T02:00:37.517Z,97970.56
2022-11-16T02:03:44.609Z,97977.44
2022-11-16T02:06:50.657Z,97970.72
2022-11-16T02:09:59.504Z,97968.16
2022-11-16T02:13:17.658Z,97960.59
2022-11-16T02:16:22.172Z,97962.22
2022-11-16T02:19:44.967Z,97966.56
2022-11-16T02:22:59.019Z,97972.63
2022-11-16T02:26:01.910Z,97963.16
2022-11-16T02:29:06.763Z,97959.81
2022-11-16T02:32:00.629Z,97964.00
2022-11-16T02:34:54.338Z,97963.16
2022-11-16T02:37:51.484Z,97962.38
2022-11-16T02:40:44.647Z,97957.09
2022-11-16T02:43:39.823Z,97958.06
2022-11-16T02:46:32.940Z,97952.94
2022-11-16T02:49:21.550Z,97960.59
2022-11-16T02:52:11.608Z,97966.56
2022-11-16T02:54:58.704Z,97958.06
2022-11-16T02:57:52.927Z,97954.53
2022-11-16T03:00:48.234Z,97957.25
2022-11-16T03:03:44.820Z,97955.50
2022-11-16T03:06:36.004Z,97952.94
2022-11-16T03:09:29.553Z,97962.22
2022-11-16T03:12:20.471Z,97964.00
2022-11-16T03:15:11.263Z,97956.31
2022-11-16T03:18:01.681Z,97964.78
2022-11-16T03:20:54.159Z,97969.91
2022-11-16T03:23:41.151Z,97968.28
2022-11-16T03:26:37.434Z,97964.78
2022-11-16T03:29:32.054Z,97962.22
2022-11-16T03:32:32.214Z,97954.53
2022-11-16T03:35:23.515Z,97958.06
2022-11-16T03:38:14.032Z,97969.13
2022-11-16T03:41:09.026Z,97969.13
2022-11-16T03:43:58.174Z,97953.88
2022-11-16T03:46:46.711Z,97956.31
2022-11-16T03:49:35.369Z,97962.38
2022-11-16T03:52:23.109Z,97966.56
2022-11-16T03:55:12.911Z,97977.75
2022-11-16T03:58:02.004Z,97986.22
2022-11-16T04:00:49.248Z,97991.34
2022-11-16T04:03:36.216Z,97983.66
2022-11-16T04:06:41.181Z,97982.72
2022-11-16T04:09:45.806Z,97981.25
2022-11-16T04:12:52.212Z,97982.03
2022-11-16T04:15:56.847Z,97973.72
2022-11-16T04:19:02.199Z,97973.72
2022-11-16T04:22:12.051Z,97960.13
2022-11-16T04:25:06.389Z,97963.63
2022-11-16T04:28:13.320Z,97960.22
2022-11-16T04:31:23.951Z,97964.56
2022-11-16T04:34:55.046Z,97978.47
2022-11-16T04:37:53.477Z,97982.63
2022-11-16T04:40:46.223Z,97995.59
2022-11-16T04:43:34.413Z,98006.63
2022-11-16T04:46:39.347Z,98009.97
2022-11-16T04:49:26.372Z,98012.53
2022-11-16T04:52:16.196Z,98013.38
2022-11-16T04:55:04.731Z,97981.03
2022-11-16T04:57:52.844Z,97984.38
2022-11-16T05:00:42.704Z,97982.63
2022-11-16T05:03:30.915Z,97989.38
2022-11-16T05:06:17.919Z,97991.13
2022-11-16T05:09:05.669Z,97994.50
2022-11-16T05:11:53.883Z,97999.63
2022-11-16T05:14:41.196Z,98012.44
2022-11-16T05:17:30.424Z,98005.53
2022-11-16T05:20:37.377Z,97998.78
2022-11-16T05:23:43.012Z,98001.34
2022-11-16T05:26:33.703Z,98007.44
2022-11-16T05:29:23.049Z,98000.56
2022-11-16T05:32:12.724Z,98013.38
2022-11-16T05:35:01.520Z,98009.03
2022-11-16T05:37:48.728Z,98003.91
2022-11-16T05:40:36.207Z,98010.66
2022-11-16T05:43:23.517Z,98017.56
2022-11-16T05:46:19.382Z,98005.53
2022-11-16T05:49:09.219Z,98018.34
2022-11-16T05:51:58.593Z,98009.88
2022-11-16T05:54:45.891Z,98007.31
2022-11-16T05:57:33.292Z,98008.91
2022-11-16T06:00:21.492Z,98015.78
2022-11-16T06:03:11.928Z,98010.66
2022-11-16T06:05:59.672Z,98010.66
2022-11-16T06:08:49.775Z,98015.78
2022-11-16T06:11:42.095Z,98018.34
2022-11-16T06:14:29.816Z,98016.59
2022-11-16T06:17:18.474Z,98016.59
2022-11-16T06:20:06.727Z,98022.53
2022-11-16T06:22:53.722Z,98024.16
2022-11-16T06:25:43.230Z,98021.69
2022-11-16T06:28:32.029Z,98034.38
2022-11-16T06:31:19.328Z,98026.81
2022-11-16T06:34:06.962Z,98049.75
2022-11-16T06:36:53.968Z,98043.81
2022-11-16T06:39:41.690Z,98043.81
2022-11-16T06:42:30.855Z,98044.63
2022-11-16T06:45:19.627Z,98043.81
2022-11-16T06:48:11.638Z,98049.75
2022-11-16T06:50:58.653Z,98051.50
2022-11-16T06:53:45.787Z,98059.19
2022-11-16T06:56:35.663Z,98059.19
2022-11-16T06:59:24.050Z,98056.63
2022-11-16T07:02:12.153Z,98064.31
2022-11-16T07:04:41.719Z,98064.31
2022-11-16T07:07:10.434Z,98061.59
2022-11-16T07:09:39.996Z,98067.53
2022-11-16T07:12:09.550Z,98057.31
2022-11-16T07:14:42.509Z,98064.00
2022-11-16T07:17:12.930Z,98064.00
2022-11-16T07:19:41.555Z,98079.38
2022-11-16T07:22:10.168Z,98081.94
2022-11-16T07:24:38.903Z,98075.09
2022-11-16T07:27:09.443Z,98080.22
2022-11-16T07:29:43.853Z,98069.97
2022-11-16T07:32:32.718Z,98076.81
2022-11-16T07:35:10.679Z,98072.53
2022-11-16T07:37:40.461Z,98078.44
2022-11-16T07:40:11.513Z,98080.06
2022-11-16T07:42:42.098Z,98082.63
2022-11-16T07:45:21.117Z,98087.75
2022-11-16T07:47:55.389Z,98092.88
2022-11-16T07:50:42.498Z,98086.94
2022-11-16T07:53:11.637Z,98082.63
2022-11-16T07:55:41.310Z,98090.94
2022-11-16T07:58:10.997Z,98099.63
2022-11-16T08:00:41.893Z,98105.53
2022-11-16T08:03:20.447Z,98101.09
2022-11-16T08:06:01.079Z,98101.09
2022-11-16T08:08:30.713Z,98101.88
2022-11-16T08:11:01.760Z,98102.53
2022-11-16T08:13:34.043Z,98115.34
2022-11-16T08:16:09.543Z,98119.53
2022-11-16T08:18:39.286Z,98128.81
2022-11-16T08:21:10.390Z,98127.06
2022-11-16T08:23:41.991Z,98131.09
2022-11-16T08:26:14.396Z,98127.59
2022-11-16T08:28:47.772Z,98127.59
2022-11-16T08:31:21.862Z,98123.16
2022-11-16T08:33:54.274Z,98128.94
2022-11-16T08:36:23.122Z,98134.75
2022-11-16T08:38:53.472Z,98133.78
2022-11-16T08:41:25.811Z,98130.97
2022-11-16T08:43:55.291Z,98133.22
2022-11-16T08:46:25.690Z,98135.50
2022-11-16T08:49:02.765Z,98145.47
2022-11-16T08:51:31.415Z,98138.44
2022-11-16T08:54:06.394Z,98136.53
2022-11-16T08:56:37.896Z,98138.97
2022-11-16T08:59:07.154Z,98138.00
2022-11-16T09:01:37.210Z,98146.53
2022-11-16T09:04:06.176Z,98137.06
2022-11-16T09:06:36.974Z,98147.31
2022-11-16T09:09:06.058Z,98149.72
2022-11-16T09:11:34.810Z,98147.16
2022-11-16T09:14:03.425Z,98159.03
2022-11-16T09:16:32.031Z,98152.16
2022-11-16T09:19:02.987Z,98160.66
2022-11-16T09:21:32.047Z,98157.16
2022-11-16T09:24:00.674Z,98153.63
2022-11-16T09:26:29.288Z,98155.25
2022-11-16T09:28:59.951Z,98156.03
2022-11-16T09:31:29.749Z,98157.66
2022-11-16T09:34:01.023Z,98154.94
2022-11-16T09:36:30.395Z,98161.69
2022-11-16T09:39:29.955Z,98161.56
2022-11-16T09:42:00.131Z,98160.75
2022-11-16T09:44:57.482Z,98162.38
2022-11-16T09:47:50.339Z,98168.31
2022-11-16T09:50:48.715Z,98166.53
2022-11-16T09:53:33.233Z,98172.63
2022-11-16T09:56:06.033Z,98180.19
2022-11-16T09:58:42.438Z,98184.34
2022-11-16T10:01:23.972Z,98175.69
2022-11-16T10:04:00.032Z,98186.78
2022-11-16T10:06:43.388Z,98179.75
2022-11-16T10:09:13.562Z,98179.59
2022-11-16T10:12:15.763Z,98176.22
2022-11-16T10:15:20.603Z,98172.84
2022-11-16T10:18:06.845Z,98164.19
2022-11-16T10:20:57.223Z,98173.50
2022-11-16T10:23:43.436Z,98169.19
2022-11-16T10:26:27.501Z,98163.13
2022-11-16T10:29:15.728Z,98166.50
2022-11-16T10:31:59.965Z,98163.94
2022-11-16T10:34:43.903Z,98162.31
2022-11-16T10:37:14.424Z,98158.13
2022-11-16T10:39:44.477Z,98156.38
2022-11-16T10:42:18.547Z,98161.50
2022-11-16T10:44:52.865Z,98152.22
2022-11-16T10:47:30.814Z,98147.88
2022-11-16T10:50:06.488Z,98142.91
2022-11-16T10:52:35.153Z,98147.09
2022-11-16T10:55:06.052Z,98147.09
2022-11-16T10:57:57.008Z,98133.59
2022-11-16T11:00:48.707Z,98134.38
2022-11-16T11:03:30.803Z,98133.59
2022-11-16T11:06:00.305Z,98126.69
2022-11-16T11:08:31.555Z,98130.88
2022-11-16T11:11:24.590Z,98128.16
2022-11-16T11:14:05.988Z,98131.69
2022-11-16T11:16:34.696Z,98123.03
2022-11-16T11:19:25.245Z,98123.72
2022-11-16T11:21:58.434Z,98122.09
2022-11-16T11:24:45.099Z,98120.19
2022-11-16T11:27:23.990Z,98122.75
2022-11-16T11:29:59.726Z,98127.75
2022-11-16T11:32:34.231Z,98133.66
2022-11-16T11:35:06.498Z,98122.47
2022-11-16T11:37:38.304Z,98130.16
2022-11-16T11:40:26.746Z,98109.78
2022-11-16T11:43:02.131Z,98121.78
2022-11-16T11:45:46.154Z,98116.66
2022-11-16T11:48:31.210Z,98117.63
2022-11-16T11:51:06.027Z,98111.69
2022-11-16T11:53:47.047Z,98108.31
2022-11-16T11:56:16.346Z,98111.84
2022-11-16T11:58:48.473Z,98109.28
2022-11-16T12:01:42.988Z,98110.22
2022-11-16T12:05:02.846Z,98113.06
2022-11-16T12:07:51.189Z,98105.53
2022-11-16T12:10:30.383Z,98103.75
2022-11-16T12:13:17.680Z,98101.19
2022-11-16T12:16:04.829Z,98092.72
2022-11-16T12:18:58.482Z,98095.44
2022-11-16T12:21:43.481Z,98083.41
2022-11-16T12:24:34.151Z,98085.03
2022-11-16T12:27:17.905Z,98079.88
2022-11-16T12:29:58.614Z,98080.69
2022-11-16T12:33:04.886Z,98078.13
2022-11-16T12:35:56.464Z,98078.94
2022-11-16T12:38:42.204Z,98076.53
2022-11-16T12:41:52.022Z,98073.97
2022-11-16T12:44:29.703Z,98067.88
2022-11-16T12:47:07.944Z,98069.47
2022-11-16T12:50:03.353Z,98065.97
2022-11-16T12:52:53.100Z,98065.97
2022-11-16T12:55:31.544Z,98052.22
2022-11-16T12:58:18.716Z,98054.78
2022-11-16T13:00:57.979Z,98056.38
2022-11-16T13:03:36.642Z,98046.94
2022-11-16T13:06:11.401Z,98040.88
2022-11-16T13:08:49.643Z,98041.66
2022-11-16T13:11:23.699Z,98045.00
2022-11-16T13:13:59.207Z,98040.72
2022-11-16T13:16:29.036Z,98037.31
2022-11-16T13:18:58.633Z,98032.19
2022-11-16T13:21:39.529Z,98031.25
2022-11-16T13:24:37.262Z,98030.47
2022-11-16T13:27:31.645Z,98031.41
2022-11-16T13:30:07.131Z,98024.50
2022-11-16T13:32:55.313Z,98020.19
2022-11-16T13:35:24.486Z,98013.44
2022-11-16T13:37:54.467Z,98009.94
2022-11-16T13:40:27.521Z,98015.88
2022-11-16T13:43:17.957Z,98010.72
2022-11-16T13:45:58.596Z,98007.38
2022-11-16T13:48:33.404Z,98001.28
2022-11-16T13:51:04.315Z,97997.13
2022-11-16T13:56:29.386Z,98006.41
2022-11-16T13:58:59.862Z,97998.59
2022-11-16T14:01:56.608Z,97991.84
2022-11-16T14:04:56.963Z,97989.44
2022-11-16T14:07:40.622Z,97994.56
2022-11-16T14:10:11.844Z,97998.06
2022-11-16T14:12:58.518Z,97992.78
2022-11-16T14:15:36.379Z,97985.88
2022-11-16T14:18:37.115Z,97976.75
2022-11-16T14:21:16.754Z,97967.31
2022-11-16T14:24:05.709Z,97972.44
2022-11-16T14:26:50.140Z,97969.88
2022-11-16T14:29:44.538Z,97950.31
2022-11-16T14:32:23.015Z,97963.13
2022-11-16T14:34:54.517Z,97969.88
2022-11-16T14:37:34.874Z,97968.09
2022-11-16T14:40:08.659Z,97962.97
2022-11-16T14:43:14.892Z,97971.63
2022-11-16T14:45:39.799Z,97967.31
2022-11-16T14:48:17.520Z,97964.75
2022-11-16T14:50:48.163Z,97962.16
2022-11-16T14:53:20.828Z,97962.16
2022-11-16T14:55:49.411Z,97962.16
2022-11-16T14:58:22.115Z,97963.13
2022-11-16T15:00:55.336Z,97975.94
2022-11-16T15:03:25.384Z,97970.03
2022-11-16T15:05:54.052Z,97977.72
2022-11-16T15:08:27.757Z,97970.16
2022-11-16T15:10:57.751Z,97978.66
2022-11-16T15:13:28.024Z,97968.25
2022-11-16T15:16:17.261Z,97959.91
2022-11-16T15:18:59.295Z,97963.28
2022-11-16T15:21:28.085Z,97961.66
2022-11-16T15:26:45.375Z,97960.84
2022-11-16T15:29:19.939Z,97957.47
2022-11-16T15:31:49.460Z,97956.69
2022-11-16T15:34:19.878Z,97954.91
2022-11-16T15:36:50.127Z,97938.72
2022-11-16T15:39:22.234Z,97942.25
2022-11-16T15:41:51.580Z,97932.16
2022-11-16T15:44:23.921Z,97929.56
2022-11-16T15:46:56.379Z,97934.84
2022-11-16T15:49:30.592Z,97933.25
2022-11-16T15:52:00.343Z,97932.59
2022-11-16T15:54:31.089Z,97932.59
2022-11-16T15:57:08.802Z,97924.38
2022-11-16T15:59:39.086Z,97928.72
2022-11-16T16:02:18.947Z,97927.09
2022-11-16T16:04:47.648Z,97927.41
2022-11-16T16:07:37.572Z,97922.28
2022-11-16T16:10:25.792Z,97909.75
2022-11-16T16:13:00.844Z,97903.81
2022-11-16T16:15:36.152Z,97902.22
2022-11-16T16:18:14.059Z,97911.66
2022-11-16T16:20:48.981Z,97907.50
2022-11-16T16:23:26.084Z,97908.44
2022-11-16T16:25:54.694Z,97917.88
2022-11-16T16:28:23.306Z,97923.03
2022-11-16T16:30:54.223Z,97930.72
2022-11-16T16:33:25.682Z,97922.22
2022-11-16T16:35:54.337Z,97922.22
2022-11-16T16:38:22.906Z,97915.47
2022-11-16T16:40:51.489Z,97915.47
2022-11-16T16:43:20.094Z,97911.31
2022-11-16T16:45:48.806Z,97903.63
2022-11-16T16:48:18.798Z,97910.34
2022-11-16T16:50:47.472Z,97901.06
2022-11-16T16:53:16.675Z,97896.75
2022-11-16T16:55:50.408Z,97890.81
2022-11-16T16:58:19.607Z,97898.63
2022-11-16T17:00:48.310Z,97890.16
2022-11-16T17:03:18.385Z,97894.47
2022-11-16T17:05:47.163Z,97893.66
2022-11-16T17:08:15.716Z,97892.06
2022-11-16T17:10:44.315Z,97891.25
2022-11-16T17:13:15.873Z,97894.78
2022-11-16T17:15:44.578Z,97901.00
2022-11-16T17:18:13.281Z,97889.13
2022-11-16T17:20:45.478Z,97887.53
2022-11-16T17:23:15.251Z,97867.16
2022-11-16T17:25:44.121Z,97868.13
2022-11-16T17:28:12.753Z,97874.06
2022-11-16T17:30:41.379Z,97871.66
2022-11-16T17:33:10.255Z,97865.72
2022-11-16T17:35:38.851Z,97867.59
2022-11-16T17:38:09.862Z,97864.88
2022-11-16T17:40:38.437Z,97857.34
2022-11-16T17:43:07.061Z,97861.66
2022-11-16T17:45:35.825Z,97852.38
2022-11-16T17:48:04.596Z,97855.72
2022-11-16T17:50:33.250Z,97850.59
2022-11-16T17:53:01.927Z,97853.97
2022-11-16T17:55:32.609Z,97845.47
2022-11-16T17:58:01.225Z,97845.47
2022-11-16T18:00:29.963Z,97841.97
2022-11-16T18:02:58.545Z,97838.59
2022-11-16T18:05:27.150Z,97848.69
2022-11-16T18:07:55.792Z,97835.06
2022-11-16T18:10:24.396Z,97831.72
2022-11-16T18:12:55.298Z,97829.94
2022-11-16T18:15:28.805Z,97824.03
2022-11-16T18:17:58.019Z,97822.25
2022-11-16T18:20:27.771Z,97826.59
2022-11-16T18:22:57.243Z,97832.66
2022-11-16T18:25:26.408Z,97831.72
2022-11-16T18:27:57.093Z,97824.19
2022-11-16T18:30:26.093Z,97823.41
2022-11-16T18:32:54.832Z,97821.78
2022-11-16T18:35:23.449Z,97818.38
2022-11-16T18:37:52.250Z,97820.94
2022-11-16T18:40:20.959Z,97812.47
2022-11-16T18:42:49.625Z,97809.13
2022-11-16T18:45:20.007Z,97807.50
2022-11-16T18:47:48.617Z,97806.84
2022-11-16T18:50:22.605Z,97803.47
2022-11-16T18:52:54.193Z,97799.31
2022-11-16T18:55:22.810Z,97800.25
2022-11-16T18:57:51.419Z,97800.25
2022-11-16T19:00:22.432Z,97782.47
2022-11-16T19:02:51.049Z,97776.56
2022-11-16T19:05:19.768Z,97774.16
2022-11-16T19:07:48.321Z,97778.44
2022-11-16T19:10:17.037Z,97777.66
2022-11-16T19:12:45.647Z,97780.38
2022-11-16T19:15:14.234Z,97780.53
2022-11-16T19:18:14.114Z,97775.56
2022-11-16T19:20:33.830Z,97775.72
2022-11-16T19:23:02.545Z,97781.78
2022-11-16T19:25:31.145Z,97787.06
2022-11-16T19:27:59.779Z,97782.88
2022-11-16T19:30:28.382Z,97788.94
2022-11-16T19:32:59.816Z,97788.94
2022-11-16T19:35:28.499Z,97795.00
2022-11-16T19:37:57.487Z,97784.75
2022-11-16T19:40:26.180Z,97778.84
2022-11-16T19:42:54.779Z,97764.28
2022-11-16T19:45:23.382Z,97761.72
2022-11-16T19:47:52.038Z,97765.91
2022-11-16T19:50:24.136Z,97767.66
2022-11-16T19:52:52.811Z,97770.22
2022-11-16T19:55:21.490Z,97772.78
2022-11-16T19:57:50.270Z,97776.13
2022-11-16T20:00:19.585Z,97782.88
2022-11-16T20:02:48.162Z,97781.25
2022-11-16T20:05:16.916Z,97776.13
2022-11-16T20:07:46.895Z,97776.13
2022-11-16T20:10:15.532Z,97780.47
2022-11-16T20:12:44.579Z,97779.63
2022-11-16T20:15:13.205Z,97771.16
2022-11-16T20:17:41.819Z,97768.59
2022-11-16T20:20:11.614Z,97755.00
2022-11-16T20:22:40.228Z,97748.13
2022-11-16T20:25:11.157Z,97748.28
2022-11-16T20:27:39.836Z,97744.09
2022-11-16T20:30:10.127Z,97744.09
2022-11-16T20:32:38.679Z,97739.13
2022-11-16T20:35:07.666Z,97743.47
2022-11-16T20:37:36.745Z,97754.66
2022-11-16T20:40:06.720Z,97756.38
2022-11-16T20:42:37.014Z,97758.16
2022-11-16T20:45:07.136Z,97753.97
2022-11-16T20:47:35.721Z,97744.72
2022-11-16T20:50:05.048Z,97744.72
2022-11-16T20:52:35.902Z,97749.16
2022-11-16T20:55:08.035Z,97732.19
2022-11-16T20:57:38.024Z,97728.00
2022-11-16T21:00:08.303Z,97713.63
2022-11-16T21:02:37.042Z,97722.25
2022-11-16T21:05:24.328Z,97712.94
2022-11-16T21:08:12.373Z,97709.75
2022-11-16T21:10:59.550Z,97706.53
2022-11-16T21:14:06.532Z,97702.34
2022-11-16T21:16:53.671Z,97707.78
2022-11-16T21:19:46.410Z,97702.03
2022-11-16T21:22:46.833Z,97692.88
2022-11-16T21:25:34.154Z,97697.19
2022-11-16T21:28:25.332Z,97690.47
2022-11-16T21:31:16.172Z,97683.75
2022-11-16T21:34:03.413Z,97688.03
2022-11-16T21:36:52.338Z,97693.16
2022-11-16T21:39:39.415Z,97701.81
2022-11-16T21:42:26.787Z,97690.75
2022-11-16T21:45:13.683Z,97685.63
2022-11-16T21:48:02.226Z,97680.66
2022-11-16T21:50:49.531Z,97682.44
2022-11-16T21:53:37.307Z,97671.38
2022-11-16T21:56:26.953Z,97677.31
2022-11-16T21:59:13.961Z,97675.53
2022-11-16T22:02:01.165Z,97661.97
2022-11-16T22:05:06.840Z,97669.63
2022-11-16T22:07:53.914Z,97666.25
2022-11-16T22:10:41.258Z,97665.47
2022-11-16T22:13:28.400Z,97665.47
2022-11-16T22:16:16.635Z,97666.41
2022-11-16T22:19:03.712Z,97664.81
2022-11-16T22:21:53.144Z,97659.81
2022-11-16T22:24:40.668Z,97658.25
2022-11-16T22:27:28.454Z,97673.59
2022-11-16T22:30:16.648Z,97657.41
2022-11-16T22:33:03.933Z,97656.63
2022-11-16T22:35:51.148Z,97658.41
2022-11-16T22:38:40.037Z,97655.00
2022-11-16T22:41:27.192Z,97653.28
2022-11-16T22:44:14.327Z,97649.91
2022-11-16T22:47:01.408Z,97645.72
2022-11-16T22:49:48.499Z,97648.28
2022-11-16T22:52:35.918Z,97647.34
2022-11-16T22:55:24.468Z,97638.03
2022-11-16T22:58:11.692Z,97622.84
2022-11-16T23:00:58.821Z,97619.34
2022-11-16T23:03:46.936Z,97608.16
2022-11-16T23:06:34.329Z,97610.72
2022-11-16T23:09:21.594Z,97608.16
2022-11-16T23:12:27.917Z,97609.78
2022-11-16T23:15:33.155Z,97602.38
2022-11-16T23:18:20.747Z,97608.94
2022-11-16T23:21:25.529Z,97597.09
2022-11-16T23:24:30.888Z,97600.34
2022-11-16T23:27:31.489Z,97594.41
2022-11-16T23:30:18.978Z,97585.75
2022-11-16T23:33:06.314Z,97579.06
2022-11-16T23:35:53.350Z,97572.81
2022-11-16T23:38:40.746Z,97564.19
2022-11-16T23:41:45.208Z,97562.28
2022-11-16T23:44:33.650Z,97555.72
2022-11-16T23:47:20.947Z,97552.22
2022-11-16T23:50:08.839Z,97546.13
2022-11-16T23:52:55.934Z,97531.59
2022-11-16T23:55:43.045Z,97533.16
2022-11-16T23:58:29.937Z,97534.00
